createdAt,value
2023-03-20T00:01:05.848Z,1.5
2023-03-20T00:02:14.403Z,1.4
2023-03-20T00:03:22.767Z,1.4
2023-03-20T00:04:31.100Z,1.4
2023-03-20T00:05:39.600Z,1.7
2023-03-20T00:06:47.937Z,1.7
2023-03-20T00:07:56.256Z,1.7
2023-03-20T00:09:07.026Z,2.4
2023-03-20T00:10:13.143Z,2.4
2023-03-20T00:11:21.459Z,2.4
2023-03-20T00:12:30.008Z,1.7
2023-03-20T00:13:38.338Z,1.7
2023-03-20T00:14:46.658Z,1.7
2023-03-20T00:15:55.245Z,1.2
2023-03-20T00:17:03.565Z,1.2
2023-03-20T00:18:11.914Z,1.2
2023-03-20T00:19:20.451Z,2.3
2023-03-20T00:20:31.176Z,2.3
2023-03-20T00:21:37.128Z,2.3
2023-03-20T00:22:45.677Z,3.2
2023-03-20T00:23:54.000Z,3.2
2023-03-20T00:25:02.342Z,3.2
2023-03-20T00:26:10.892Z,2.4
2023-03-20T00:27:19.206Z,2.4
2023-03-20T00:28:27.535Z,2.4
2023-03-20T00:29:36.061Z,1.5
2023-03-20T00:30:44.387Z,1.5
2023-03-20T00:31:52.842Z,1.5
2023-03-20T00:33:01.306Z,1.9
2023-03-20T00:34:09.590Z,1.9
2023-03-20T00:35:17.911Z,1.9
2023-03-20T00:36:26.458Z,3.1
2023-03-20T00:37:34.785Z,3.1
2023-03-20T00:38:43.109Z,3.1
2023-03-20T00:39:51.654Z,2.6
2023-03-20T00:40:59.994Z,2.6
2023-03-20T00:42:08.492Z,2.6
2023-03-20T00:43:16.852Z,2.8
2023-03-20T00:44:25.192Z,2.8
2023-03-20T00:45:33.730Z,2.8
2023-03-20T00:46:42.123Z,1.9
2023-03-20T00:47:50.396Z,1.9
2023-03-20T00:48:58.714Z,1.9
2023-03-20T00:50:07.251Z,3
2023-03-20T00:51:15.596Z,3
2023-03-20T00:52:23.958Z,3
2023-03-20T00:53:32.459Z,1.9
2023-03-20T00:54:40.796Z,1.9
2023-03-20T00:55:49.119Z,1.9
2023-03-20T00:56:57.670Z,2.5
2023-03-20T00:58:06.023Z,2.5
2023-03-20T00:59:14.326Z,2.5
2023-03-20T01:00:22.858Z,2.4
2023-03-20T01:01:31.193Z,2.4
2023-03-20T01:02:39.524Z,2.4
2023-03-20T01:03:48.091Z,3.6
2023-03-20T01:04:56.404Z,3.6
2023-03-20T01:06:04.754Z,3.6
2023-03-20T01:07:13.282Z,3.6
2023-03-20T01:08:21.593Z,3.6
2023-03-20T01:09:29.937Z,3.6
2023-03-20T01:10:38.513Z,3.7
2023-03-20T01:11:46.849Z,3.7
2023-03-20T01:12:55.182Z,3.7
2023-03-20T01:14:03.743Z,2.5
2023-03-20T01:15:12.050Z,2.5
2023-03-20T01:16:20.482Z,2.5
2023-03-20T01:17:28.939Z,2.7
2023-03-20T01:18:37.266Z,2.7
2023-03-20T01:19:45.591Z,2.7
2023-03-20T01:20:54.126Z,3.7
2023-03-20T01:22:02.466Z,3.7
2023-03-20T01:23:10.795Z,3.7
2023-03-20T01:24:19.330Z,5.3
2023-03-20T01:25:27.648Z,5.3
2023-03-20T01:26:35.989Z,5.3
2023-03-20T01:27:44.547Z,4.5
2023-03-20T01:28:52.877Z,4.5
2023-03-20T01:30:01.213Z,4.5
2023-03-20T01:31:09.744Z,5.7
2023-03-20T01:32:18.080Z,5.7
2023-03-20T01:33:26.401Z,5.7
2023-03-20T01:34:34.932Z,5.3
2023-03-20T01:35:43.274Z,5.3
2023-03-20T01:36:51.620Z,5.3
2023-03-20T01:38:00.146Z,6.1
2023-03-20T01:39:08.469Z,6.1
2023-03-20T01:40:16.793Z,6.1
2023-03-20T01:41:25.331Z,6.6
2023-03-20T01:42:33.657Z,6.6
2023-03-20T01:43:41.996Z,6.6
2023-03-20T01:44:50.555Z,5.6
2023-03-20T01:45:58.962Z,5.6
2023-03-20T01:47:07.207Z,5.6
2023-03-20T01:48:15.737Z,5.5
2023-03-20T01:49:24.065Z,5.5
2023-03-20T01:50:32.385Z,5.5
2023-03-20T01:51:40.934Z,6.8
2023-03-20T01:52:49.264Z,6.8
2023-03-20T01:53:57.599Z,6.8
2023-03-20T01:55:06.130Z,6.5
2023-03-20T01:56:14.460Z,6.5
2023-03-20T01:57:22.807Z,6.5
2023-03-20T01:58:31.350Z,6
2023-03-20T01:59:39.691Z,6
2023-03-20T02:00:48.067Z,6
2023-03-20T02:01:56.595Z,7
2023-03-20T02:03:04.904Z,7
2023-03-20T02:04:13.225Z,7
2023-03-20T02:05:21.767Z,6
2023-03-20T02:06:30.137Z,6
2023-03-20T02:07:38.456Z,6
2023-03-20T02:08:46.994Z,6.7
2023-03-20T02:09:55.326Z,6.7
2023-03-20T02:11:03.664Z,6.7
2023-03-20T02:12:12.205Z,5.7
2023-03-20T02:13:20.530Z,5.7
2023-03-20T02:14:28.861Z,5.7
2023-03-20T02:15:37.714Z,6.6
2023-03-20T02:16:45.781Z,6.6
2023-03-20T02:17:54.094Z,6.6
2023-03-20T02:19:02.616Z,7.4
2023-03-20T02:20:10.947Z,7.4
2023-03-20T02:21:19.287Z,7.4
2023-03-20T02:22:27.820Z,6.3
2023-03-20T02:23:36.166Z,6.3
2023-03-20T02:24:44.483Z,6.3
2023-03-20T02:25:53.023Z,7.7
2023-03-20T02:27:01.347Z,7.7
2023-03-20T02:28:09.673Z,7.7
2023-03-20T02:29:18.211Z,8.3
2023-03-20T02:30:26.547Z,8.3
2023-03-20T02:31:34.895Z,8.3
2023-03-20T02:32:43.494Z,6.7
2023-03-20T02:33:51.801Z,6.7
2023-03-20T02:35:00.119Z,6.7
2023-03-20T02:36:08.701Z,8.2
2023-03-20T02:37:17.018Z,8.2
2023-03-20T02:38:25.315Z,8.2
2023-03-20T02:39:33.878Z,7
2023-03-20T02:40:42.172Z,7
2023-03-20T02:41:50.579Z,7
2023-03-20T02:42:59.055Z,7.8
2023-03-20T02:44:07.395Z,7.8
2023-03-20T02:45:15.704Z,7.8
2023-03-20T02:46:24.282Z,7.5
2023-03-20T02:47:32.594Z,7.5
2023-03-20T02:48:40.941Z,7.5
2023-03-20T02:49:49.476Z,7.7
2023-03-20T02:50:57.768Z,7.7
2023-03-20T02:52:06.118Z,7.7
2023-03-20T02:53:14.681Z,7.6
2023-03-20T02:54:23.000Z,7.6
2023-03-20T02:55:31.321Z,7.6
2023-03-20T02:56:39.867Z,7.9
2023-03-20T02:57:48.197Z,7.9
2023-03-20T02:58:56.536Z,7.9
2023-03-20T03:00:05.084Z,7.9
2023-03-20T03:01:13.450Z,7.9
2023-03-20T03:02:21.780Z,7.9
2023-03-20T03:03:30.286Z,8.2
2023-03-20T03:04:38.624Z,8.2
2023-03-20T03:05:46.979Z,8.2
2023-03-20T03:06:55.506Z,7.4
2023-03-20T03:08:03.838Z,7.4
2023-03-20T03:09:12.206Z,7.4
2023-03-20T03:10:20.707Z,8.4
2023-03-20T03:11:29.038Z,8.4
2023-03-20T03:12:37.360Z,8.4
2023-03-20T03:13:45.895Z,8.3
2023-03-20T03:14:54.233Z,8.3
2023-03-20T03:16:02.592Z,8.3
2023-03-20T03:17:11.101Z,11
2023-03-20T03:18:19.428Z,11
2023-03-20T03:19:27.767Z,11
2023-03-20T03:20:36.312Z,8.4
2023-03-20T03:21:44.676Z,8.4
2023-03-20T03:22:52.984Z,8.4
2023-03-20T03:24:01.528Z,8.2
2023-03-20T03:25:09.863Z,8.2
2023-03-20T03:26:18.199Z,8.2
2023-03-20T03:27:26.732Z,7.1
2023-03-20T03:28:35.064Z,7.1
2023-03-20T03:29:43.389Z,7.1
2023-03-20T03:30:51.983Z,7.9
2023-03-20T03:32:00.268Z,7.9
2023-03-20T03:33:08.650Z,7.9
2023-03-20T03:34:17.135Z,10
2023-03-20T03:35:25.472Z,10
2023-03-20T03:36:33.820Z,10
2023-03-20T03:37:42.376Z,9.3
2023-03-20T03:38:50.691Z,9.3
2023-03-20T03:39:59.037Z,9.3
2023-03-20T03:41:07.596Z,9.3
2023-03-20T03:42:15.936Z,9.3
2023-03-20T03:43:24.264Z,9.3
2023-03-20T03:44:32.803Z,9.5
2023-03-20T03:45:41.133Z,9.5
2023-03-20T03:46:49.490Z,9.5
2023-03-20T03:47:58.020Z,9.2
2023-03-20T03:49:06.347Z,9.2
2023-03-20T03:50:14.676Z,9.2
2023-03-20T03:51:23.245Z,9.8
2023-03-20T03:52:31.574Z,9.8
2023-03-20T03:53:39.931Z,9.8
2023-03-20T03:54:48.432Z,10.8
2023-03-20T03:55:56.787Z,10.8
2023-03-20T03:57:05.092Z,10.8
2023-03-20T03:58:13.632Z,11.5
2023-03-20T03:59:21.968Z,11.5
2023-03-20T04:00:30.295Z,11.5
2023-03-20T04:01:38.855Z,11.8
2023-03-20T04:02:47.176Z,11.8
2023-03-20T04:03:55.508Z,11.8
2023-03-20T04:05:04.059Z,12.4
2023-03-20T04:06:12.389Z,12.4
2023-03-20T04:07:20.701Z,12.4
2023-03-20T04:08:29.225Z,12.3
2023-03-20T04:09:37.585Z,12.3
2023-03-20T04:10:45.891Z,12.3
2023-03-20T04:11:54.429Z,13.3
2023-03-20T04:13:02.762Z,13.3
2023-03-20T04:14:11.090Z,13.3
2023-03-20T04:15:19.626Z,12.4
2023-03-20T04:16:28.020Z,12.4
2023-03-20T04:17:36.324Z,12.4
2023-03-20T04:18:44.848Z,13.2
2023-03-20T04:19:53.213Z,13.2
2023-03-20T04:21:01.541Z,13.2
2023-03-20T04:22:10.101Z,13
2023-03-20T04:23:18.432Z,13
2023-03-20T04:24:26.793Z,13
2023-03-20T04:25:35.567Z,12.8
2023-03-20T04:26:43.685Z,12.8
2023-03-20T04:27:52.052Z,12.8
2023-03-20T04:29:00.603Z,12.4
2023-03-20T04:30:08.955Z,12.4
2023-03-20T04:31:17.324Z,12.4
2023-03-20T04:32:25.951Z,13.4
2023-03-20T04:33:34.320Z,13.4
2023-03-20T04:34:42.677Z,13.4
2023-03-20T04:35:51.247Z,13.4
2023-03-20T04:36:59.542Z,13.4
2023-03-20T04:38:07.910Z,13.4
2023-03-20T04:39:16.468Z,12.8
2023-03-20T04:40:24.794Z,12.8
2023-03-20T04:41:33.153Z,12.8
2023-03-20T04:42:41.699Z,13.7
2023-03-20T04:43:50.029Z,13.7
2023-03-20T04:44:58.361Z,13.7
2023-03-20T04:46:07.026Z,15.6
2023-03-20T04:47:15.319Z,15.6
2023-03-20T04:48:24.081Z,15.6
2023-03-20T04:49:32.627Z,14.3
2023-03-20T04:50:40.969Z,14.3
2023-03-20T04:51:49.324Z,14.3
2023-03-20T04:52:57.825Z,15.1
2023-03-20T04:54:06.180Z,15.1
2023-03-20T04:55:14.515Z,15.1
2023-03-20T04:56:23.071Z,15.1
2023-03-20T04:57:32.132Z,15.1
2023-03-20T04:58:40.427Z,15.1
2023-03-20T04:59:48.961Z,15
2023-03-20T05:00:57.338Z,15
2023-03-20T05:02:05.686Z,15
2023-03-20T05:03:14.205Z,15.3
2023-03-20T05:04:22.560Z,15.3
2023-03-20T05:05:30.854Z,15.3
2023-03-20T05:06:39.429Z,14.2
2023-03-20T05:07:47.784Z,14.2
2023-03-20T05:08:56.117Z,14.2
2023-03-20T05:10:04.654Z,15.5
2023-03-20T05:11:13.033Z,15.5
2023-03-20T05:12:21.370Z,15.5
2023-03-20T05:13:29.923Z,15.6
2023-03-20T05:14:38.228Z,15.6
2023-03-20T05:15:46.575Z,15.6
2023-03-20T05:16:55.155Z,15
2023-03-20T05:18:03.442Z,15
2023-03-20T05:19:11.773Z,15
2023-03-20T05:20:20.308Z,15.7
2023-03-20T05:21:28.661Z,15.7
2023-03-20T05:22:37.001Z,15.7
2023-03-20T05:23:45.522Z,15.6
2023-03-20T05:24:53.857Z,15.6
2023-03-20T05:26:02.176Z,15.6
2023-03-20T05:27:10.717Z,13.9
2023-03-20T05:28:19.081Z,13.9
2023-03-20T05:29:27.419Z,13.9
2023-03-20T05:30:35.988Z,15.1
2023-03-20T05:31:44.283Z,15.1
2023-03-20T05:32:52.667Z,15.1
2023-03-20T05:34:01.149Z,13.7
2023-03-20T05:35:09.499Z,13.7
2023-03-20T05:36:17.889Z,13.7
2023-03-20T05:37:26.384Z,14.2
2023-03-20T05:38:34.713Z,14.2
2023-03-20T05:39:43.050Z,14.2
2023-03-20T05:40:51.620Z,14.3
2023-03-20T05:41:59.934Z,14.3
2023-03-20T05:43:08.272Z,14.3
2023-03-20T05:44:16.792Z,14.4
2023-03-20T05:45:25.142Z,14.4
2023-03-20T05:46:33.495Z,14.4
2023-03-20T05:47:41.986Z,14.7
2023-03-20T05:48:50.307Z,14.7
2023-03-20T05:49:58.639Z,14.7
2023-03-20T05:51:07.196Z,15.4
2023-03-20T05:52:15.562Z,15.4
2023-03-20T05:53:23.922Z,15.4
2023-03-20T05:54:32.477Z,17.4
2023-03-20T05:55:40.817Z,17.4
2023-03-20T05:56:49.242Z,17.4
2023-03-20T05:57:57.699Z,16.700001
2023-03-20T05:59:06.039Z,16.700001
2023-03-20T06:00:14.372Z,16.700001
2023-03-20T06:01:22.938Z,16.5
2023-03-20T06:02:31.323Z,16.5
2023-03-20T06:03:39.655Z,16.5
2023-03-20T06:04:48.155Z,19.200001
2023-03-20T06:05:56.506Z,19.200001
2023-03-20T06:07:04.866Z,19.200001
2023-03-20T06:08:13.417Z,20.799999
2023-03-20T06:09:21.785Z,20.799999
2023-03-20T06:10:30.130Z,20.799999
2023-03-20T06:11:38.722Z,24.299999
2023-03-20T06:12:47.026Z,24.299999
2023-03-20T06:13:55.398Z,24.299999
2023-03-20T06:15:03.935Z,14
2023-03-20T06:16:12.382Z,14
2023-03-20T06:17:20.677Z,14
2023-03-20T06:18:29.183Z,15.1
2023-03-20T06:19:37.546Z,15.1
2023-03-20T06:20:45.928Z,15.1
2023-03-20T06:21:54.465Z,16.299999
2023-03-20T06:23:02.822Z,16.299999
2023-03-20T06:24:11.185Z,16.299999
2023-03-20T06:25:19.729Z,12.1
2023-03-20T06:26:28.126Z,12.1
2023-03-20T06:27:36.465Z,12.1
2023-03-20T06:28:45.023Z,14.9
2023-03-20T06:29:53.402Z,14.9
2023-03-20T06:31:01.709Z,14.9
2023-03-20T06:32:10.225Z,29
2023-03-20T06:33:18.584Z,29
2023-03-20T06:34:26.878Z,29
2023-03-20T06:35:35.725Z,32
2023-03-20T06:36:45.328Z,32
2023-03-20T06:37:52.068Z,32
2023-03-20T06:39:00.618Z,21.6
2023-03-20T06:40:08.916Z,21.6
2023-03-20T06:41:31.831Z,21.6
2023-03-20T06:42:25.791Z,23.4
2023-03-20T06:43:34.426Z,23.4
2023-03-20T06:44:42.758Z,23.4
2023-03-20T06:45:51.292Z,62.700001
2023-03-20T06:46:59.624Z,62.700001
2023-03-20T06:48:07.952Z,62.700001
2023-03-20T06:49:16.521Z,28.9
2023-03-20T06:50:24.822Z,28.9
2023-03-20T06:51:33.169Z,28.9
2023-03-20T06:52:41.716Z,31.4
2023-03-20T06:53:50.043Z,31.4
2023-03-20T06:54:58.368Z,31.4
2023-03-20T06:56:06.913Z,32.900002
2023-03-20T06:57:15.478Z,32.900002
2023-03-20T06:58:23.590Z,32.900002
2023-03-20T06:59:32.125Z,19.5
2023-03-20T07:00:40.698Z,19.5
2023-03-20T07:01:49.082Z,19.5
2023-03-20T07:02:57.579Z,22.799999
2023-03-20T07:04:05.904Z,22.799999
2023-03-20T07:05:14.370Z,22.799999
2023-03-20T07:06:22.783Z,19.700001
2023-03-20T07:07:31.105Z,19.700001
2023-03-20T07:08:39.442Z,19.700001
2023-03-20T07:09:47.988Z,18.299999
2023-03-20T07:10:56.325Z,18.299999
2023-03-20T07:12:04.771Z,18.299999
2023-03-20T07:13:13.239Z,19.1
2023-03-20T07:14:21.581Z,19.1
2023-03-20T07:15:29.937Z,19.1
2023-03-20T07:16:38.552Z,17.700001
2023-03-20T07:17:46.815Z,17.700001
2023-03-20T07:18:55.160Z,17.700001
2023-03-20T07:20:03.697Z,16.799999
2023-03-20T07:21:12.158Z,16.799999
2023-03-20T07:22:20.467Z,16.799999
2023-03-20T07:23:28.994Z,18.799999
2023-03-20T07:24:37.329Z,18.799999
2023-03-20T07:25:45.854Z,18.799999
2023-03-20T07:26:54.251Z,25.5
2023-03-20T07:28:02.572Z,25.5
2023-03-20T07:29:10.900Z,25.5
2023-03-20T07:30:19.474Z,19.4
2023-03-20T07:31:27.832Z,19.4
2023-03-20T07:32:37.778Z,19.4
2023-03-20T07:33:44.652Z,21
2023-03-20T07:34:52.990Z,21
2023-03-20T07:36:01.342Z,21
2023-03-20T07:37:09.904Z,20.799999
2023-03-20T07:38:18.214Z,20.799999
2023-03-20T07:39:26.550Z,20.799999
2023-03-20T07:40:35.091Z,19.4
2023-03-20T07:41:43.439Z,19.4
2023-03-20T07:42:51.799Z,19.4
2023-03-20T07:44:00.314Z,21.5
2023-03-20T07:45:08.642Z,21.5
2023-03-20T07:46:17.033Z,21.5
2023-03-20T07:47:25.526Z,21.4
2023-03-20T07:48:33.869Z,21.4
2023-03-20T07:49:42.200Z,21.4
2023-03-20T07:50:50.773Z,30.799999
2023-03-20T07:51:59.098Z,30.799999
2023-03-20T07:53:07.451Z,30.799999
2023-03-20T07:54:15.967Z,24.799999
2023-03-20T07:55:24.290Z,24.799999
2023-03-20T07:56:32.634Z,24.799999
2023-03-20T07:57:41.159Z,24.299999
2023-03-20T07:58:49.485Z,24.299999
2023-03-20T07:59:57.818Z,24.299999
2023-03-20T08:01:06.396Z,24.799999
2023-03-20T08:02:14.710Z,24.799999
2023-03-20T08:03:23.256Z,24.799999
2023-03-20T08:04:31.587Z,26.6
2023-03-20T08:05:39.916Z,26.6
2023-03-20T08:06:48.259Z,26.6
2023-03-20T08:07:56.791Z,26.5
2023-03-20T08:09:05.142Z,26.5
2023-03-20T08:10:13.461Z,26.5
2023-03-20T08:11:22.019Z,24.6
2023-03-20T08:12:30.338Z,24.6
2023-03-20T08:13:38.662Z,24.6
2023-03-20T08:14:47.214Z,22
2023-03-20T08:15:55.551Z,22
2023-03-20T08:17:14.200Z,22
2023-03-20T08:18:12.444Z,20.9
2023-03-20T08:19:20.782Z,20.9
2023-03-20T08:20:29.114Z,20.9
2023-03-20T08:21:37.666Z,18.6
2023-03-20T08:22:46.014Z,18.6
2023-03-20T08:23:54.309Z,18.6
2023-03-20T08:25:02.883Z,19.5
2023-03-20T08:26:11.204Z,19.5
2023-03-20T08:27:19.547Z,19.5
2023-03-20T08:28:44.228Z,18.799999
2023-03-20T08:29:36.398Z,18.799999
2023-03-20T08:30:44.749Z,18.799999
2023-03-20T08:31:53.283Z,19
2023-03-20T08:33:01.673Z,19
2023-03-20T08:34:09.967Z,19
2023-03-20T08:35:32.028Z,21.1
2023-03-20T08:36:26.839Z,21.1
2023-03-20T08:37:35.197Z,21.1
2023-03-20T08:38:43.710Z,17.4
2023-03-20T08:39:52.061Z,17.4
2023-03-20T08:41:00.410Z,17.4
2023-03-20T08:42:08.936Z,16
2023-03-20T08:43:17.269Z,16
2023-03-20T08:44:25.588Z,16
2023-03-20T08:45:34.342Z,16.1
2023-03-20T08:46:42.540Z,16.1
2023-03-20T08:47:50.866Z,16.1
2023-03-20T08:48:59.424Z,17.6
2023-03-20T08:50:07.754Z,17.6
2023-03-20T08:51:16.082Z,17.6
2023-03-20T08:52:24.635Z,15
2023-03-20T08:53:32.972Z,15
2023-03-20T08:54:41.293Z,15
2023-03-20T08:55:49.831Z,15
2023-03-20T08:56:58.195Z,15
2023-03-20T08:58:06.554Z,15
2023-03-20T08:59:15.069Z,13.5
2023-03-20T09:00:23.416Z,13.5
2023-03-20T09:01:46.192Z,13.5
2023-03-20T09:02:40.375Z,13.1
2023-03-20T09:03:48.636Z,13.1
2023-03-20T09:04:56.967Z,13.1
2023-03-20T09:06:05.518Z,14
2023-03-20T09:07:13.851Z,14
2023-03-20T09:08:22.188Z,14
2023-03-20T09:09:30.760Z,14.1
2023-03-20T09:10:39.071Z,14.1
2023-03-20T09:11:47.433Z,14.1
2023-03-20T09:12:55.970Z,14.4
2023-03-20T09:14:04.291Z,14.4
2023-03-20T09:15:12.646Z,14.4
2023-03-20T09:16:21.262Z,15.1
2023-03-20T09:17:29.543Z,15.1
2023-03-20T09:18:37.891Z,15.1
2023-03-20T09:19:46.412Z,14.4
2023-03-20T09:20:54.742Z,14.4
2023-03-20T09:22:03.128Z,14.4
2023-03-20T09:23:11.622Z,14.1
2023-03-20T09:24:19.975Z,14.1
2023-03-20T09:25:28.284Z,14.1
2023-03-20T09:26:36.844Z,13.4
2023-03-20T09:27:45.171Z,13.4
2023-03-20T09:28:53.526Z,13.4
2023-03-20T09:30:02.044Z,14.7
2023-03-20T09:31:10.411Z,14.7
2023-03-20T09:32:18.737Z,14.7
2023-03-20T09:33:27.294Z,12.6
2023-03-20T09:34:35.653Z,12.6
2023-03-20T09:35:44.152Z,12.6
2023-03-20T09:36:52.586Z,14.4
2023-03-20T09:38:00.900Z,14.4
2023-03-20T09:39:09.237Z,14.4
2023-03-20T09:40:17.783Z,15.1
2023-03-20T09:41:28.122Z,15.1
2023-03-20T09:42:34.493Z,15.1
2023-03-20T09:43:43.027Z,15.6
2023-03-20T09:44:51.426Z,15.6
2023-03-20T09:45:59.707Z,15.6
2023-03-20T09:47:19.131Z,17.200001
2023-03-20T09:48:16.567Z,17.200001
2023-03-20T09:49:24.937Z,17.200001
2023-03-20T09:50:33.766Z,16.799999
2023-03-20T09:51:41.824Z,16.799999
2023-03-20T09:52:50.182Z,16.799999
2023-03-20T09:54:01.213Z,17.700001
2023-03-20T09:55:07.136Z,17.700001
2023-03-20T09:56:15.432Z,17.700001
2023-03-20T09:57:23.994Z,19.299999
2023-03-20T09:58:32.298Z,19.299999
2023-03-20T09:59:40.637Z,19.299999
2023-03-20T10:00:49.230Z,16
2023-03-20T10:01:57.672Z,16
2023-03-20T10:03:05.881Z,16
2023-03-20T10:04:14.530Z,19.1
2023-03-20T10:05:22.832Z,19.1
2023-03-20T10:06:31.193Z,19.1
2023-03-20T10:07:39.724Z,19.9
2023-03-20T10:08:48.078Z,19.9
2023-03-20T10:09:56.392Z,19.9
2023-03-20T10:11:04.939Z,18.5
2023-03-20T10:12:13.294Z,18.5
2023-03-20T10:13:21.665Z,18.5
2023-03-20T10:14:30.208Z,17.1
2023-03-20T10:15:38.545Z,17.1
2023-03-20T10:16:47.068Z,17.1
2023-03-20T10:17:55.439Z,17.5
2023-03-20T10:19:03.771Z,17.5
2023-03-20T10:20:12.137Z,17.5
2023-03-20T10:21:20.680Z,17.9
2023-03-20T10:22:29.020Z,17.9
2023-03-20T10:23:37.369Z,17.9
2023-03-20T10:24:45.916Z,17.700001
2023-03-20T10:25:54.245Z,17.700001
2023-03-20T10:27:02.596Z,17.700001
2023-03-20T10:28:11.126Z,19.5
2023-03-20T10:29:19.467Z,19.5
2023-03-20T10:30:27.797Z,19.5
2023-03-20T10:31:36.508Z,20
2023-03-20T10:32:44.746Z,20
2023-03-20T10:33:53.064Z,20
2023-03-20T10:35:01.598Z,21.799999
2023-03-20T10:36:10.038Z,21.799999
2023-03-20T10:37:18.303Z,21.799999
2023-03-20T10:38:26.884Z,21.4
2023-03-20T10:39:35.205Z,21.4
2023-03-20T10:40:43.556Z,21.4
2023-03-20T10:41:52.139Z,21.5
2023-03-20T10:43:00.434Z,21.5
2023-03-20T10:44:08.760Z,21.5
2023-03-20T10:45:17.286Z,22
2023-03-20T10:46:25.627Z,22
2023-03-20T10:47:34.050Z,22
2023-03-20T10:48:42.519Z,20
2023-03-20T10:49:51.807Z,20
2023-03-20T10:50:59.152Z,20
2023-03-20T10:52:07.710Z,20.700001
2023-03-20T10:53:16.048Z,20.700001
2023-03-20T10:54:24.507Z,20.700001
2023-03-20T10:55:33.078Z,19.200001
2023-03-20T10:56:41.424Z,19.200001
2023-03-20T10:57:49.814Z,19.200001
2023-03-20T10:58:58.327Z,20.9
2023-03-20T11:00:06.775Z,20.9
2023-03-20T11:01:15.219Z,20.9
2023-03-20T11:02:23.714Z,24.700001
2023-03-20T11:03:32.049Z,24.700001
2023-03-20T11:04:40.461Z,24.700001
2023-03-20T11:06:02.364Z,20.4
2023-03-20T11:06:57.232Z,20.4
2023-03-20T11:08:05.561Z,20.4
2023-03-20T11:09:14.122Z,20.9
2023-03-20T11:10:22.445Z,20.9
2023-03-20T11:11:30.781Z,20.9
2023-03-20T11:12:39.326Z,22.700001
2023-03-20T11:13:47.648Z,22.700001
2023-03-20T11:14:55.970Z,22.700001
2023-03-20T11:16:04.509Z,22.4
2023-03-20T11:17:12.837Z,22.4
2023-03-20T11:18:21.178Z,22.4
2023-03-20T11:19:29.707Z,22.4
2023-03-20T11:20:38.312Z,22.4
2023-03-20T11:21:46.458Z,22.4
2023-03-20T11:22:54.957Z,22.9
2023-03-20T11:24:03.373Z,22.9
2023-03-20T11:25:11.689Z,22.9
2023-03-20T11:26:20.238Z,24
2023-03-20T11:27:28.597Z,24
2023-03-20T11:28:36.892Z,24
2023-03-20T11:29:46.007Z,23.4
2023-03-20T11:31:04.273Z,23.4
2023-03-20T11:32:02.189Z,23.4
2023-03-20T11:33:10.679Z,22.299999
2023-03-20T11:34:18.975Z,22.299999
2023-03-20T11:35:27.336Z,22.299999
2023-03-20T11:36:35.882Z,23.299999
2023-03-20T11:37:44.266Z,23.299999
2023-03-20T11:38:52.553Z,23.299999
2023-03-20T11:40:01.110Z,22.5
2023-03-20T11:41:09.435Z,22.5
2023-03-20T11:42:17.770Z,22.5
2023-03-20T11:43:26.296Z,22.4
2023-03-20T11:44:34.639Z,22.4
2023-03-20T11:45:43.088Z,22.4
2023-03-20T11:46:51.587Z,25.6
2023-03-20T11:48:01.346Z,25.6
2023-03-20T11:49:08.248Z,25.6
2023-03-20T11:50:16.832Z,24.6
2023-03-20T11:51:25.125Z,24.6
2023-03-20T11:52:33.480Z,24.6
2023-03-20T11:53:41.996Z,23.700001
2023-03-20T11:54:50.324Z,23.700001
2023-03-20T11:55:58.639Z,23.700001
2023-03-20T11:57:07.196Z,24.1
2023-03-20T11:58:15.533Z,24.1
2023-03-20T11:59:23.858Z,24.1
2023-03-20T12:00:32.403Z,23
2023-03-20T12:01:40.742Z,23
2023-03-20T12:02:49.091Z,23
2023-03-20T12:03:57.725Z,22.4
2023-03-20T12:05:05.968Z,22.4
2023-03-20T12:06:14.292Z,22.4
2023-03-20T12:07:22.842Z,20.299999
2023-03-20T12:08:31.229Z,20.299999
2023-03-20T12:09:39.502Z,20.299999
2023-03-20T12:10:48.042Z,20.700001
2023-03-20T12:11:57.860Z,20.700001
2023-03-20T12:13:04.686Z,20.700001
2023-03-20T12:14:13.236Z,20.4
2023-03-20T12:15:21.587Z,20.4
2023-03-20T12:16:29.911Z,20.4
2023-03-20T12:17:38.473Z,20.200001
2023-03-20T12:18:46.783Z,20.200001
2023-03-20T12:19:55.115Z,20.200001
2023-03-20T12:21:03.658Z,17.200001
2023-03-20T12:22:11.992Z,17.200001
2023-03-20T12:23:20.322Z,17.200001
2023-03-20T12:24:28.904Z,18.9
2023-03-20T12:25:37.202Z,18.9
2023-03-20T12:26:45.547Z,18.9
2023-03-20T12:27:54.134Z,19.700001
2023-03-20T12:29:02.464Z,19.700001
2023-03-20T12:30:10.792Z,19.700001
2023-03-20T12:31:19.416Z,19.4
2023-03-20T12:32:27.679Z,19.4
2023-03-20T12:33:35.994Z,19.4
2023-03-20T12:34:44.534Z,19.799999
2023-03-20T12:35:52.921Z,19.799999
2023-03-20T12:37:01.216Z,19.799999
2023-03-20T12:38:09.756Z,20.6
2023-03-20T12:39:18.092Z,20.6
2023-03-20T12:40:27.907Z,20.6
2023-03-20T12:41:34.963Z,19.6
2023-03-20T12:42:43.332Z,19.6
2023-03-20T12:43:51.670Z,19.6
2023-03-20T12:45:00.224Z,18.6
2023-03-20T12:46:08.604Z,18.6
2023-03-20T12:47:17.609Z,18.6
2023-03-20T12:48:26.368Z,17.6
2023-03-20T12:49:34.718Z,17.6
2023-03-20T12:50:43.780Z,17.6
2023-03-20T12:51:52.362Z,18.1
2023-03-20T12:53:00.650Z,18.1
2023-03-20T12:54:08.969Z,18.1
2023-03-20T12:55:17.508Z,16.700001
2023-03-20T12:56:25.878Z,16.700001
2023-03-20T12:57:34.203Z,16.700001
2023-03-20T12:58:42.724Z,16.700001
2023-03-20T12:59:51.100Z,16.700001
2023-03-20T13:00:59.438Z,16.700001
2023-03-20T13:02:08.088Z,16.4
2023-03-20T13:03:16.374Z,16.4
2023-03-20T13:04:24.659Z,16.4
2023-03-20T13:05:33.202Z,14.9
2023-03-20T13:06:41.556Z,14.9
2023-03-20T13:07:49.877Z,14.9
2023-03-20T13:08:58.434Z,16
2023-03-20T13:10:07.061Z,16
2023-03-20T13:11:15.343Z,16
2023-03-20T13:12:23.907Z,17.200001
2023-03-20T13:13:32.211Z,17.200001
2023-03-20T13:14:40.546Z,17.200001
2023-03-20T13:15:49.111Z,16.299999
2023-03-20T13:16:57.407Z,16.299999
2023-03-20T13:18:05.728Z,16.299999
2023-03-20T13:19:14.276Z,17.5
2023-03-20T13:20:22.626Z,17.5
2023-03-20T13:21:30.965Z,17.5
2023-03-20T13:22:39.551Z,14.8
2023-03-20T13:23:47.850Z,14.8
2023-03-20T13:24:56.168Z,14.8
2023-03-20T13:26:04.776Z,14.9
2023-03-20T13:27:13.110Z,14.9
2023-03-20T13:28:21.488Z,14.9
2023-03-20T13:29:30.006Z,16.6
2023-03-20T13:30:38.502Z,16.6
2023-03-20T13:31:46.817Z,16.6
2023-03-20T13:32:55.220Z,15.7
2023-03-20T13:34:03.540Z,15.7
2023-03-20T13:35:11.868Z,15.7
2023-03-20T13:36:20.477Z,15.5
2023-03-20T13:37:28.867Z,15.5
2023-03-20T13:38:37.184Z,15.5
2023-03-20T13:39:45.736Z,16
2023-03-20T13:40:54.045Z,16
2023-03-20T13:42:02.400Z,16
2023-03-20T13:43:10.963Z,16.9
2023-03-20T13:44:19.327Z,16.9
2023-03-20T13:45:29.435Z,16.9
2023-03-20T13:46:36.343Z,19
2023-03-20T13:47:44.578Z,19
2023-03-20T13:48:52.942Z,19
2023-03-20T13:50:01.465Z,15.4
2023-03-20T13:51:09.786Z,15.4
2023-03-20T13:52:18.136Z,15.4
2023-03-20T13:53:26.678Z,14.5
2023-03-20T13:54:35.000Z,14.5
2023-03-20T13:55:43.346Z,14.5
2023-03-20T13:56:52.003Z,13.5
2023-03-20T13:58:00.211Z,13.5
2023-03-20T13:59:08.539Z,13.5
2023-03-20T14:00:17.121Z,15.7
2023-03-20T14:01:25.498Z,15.7
2023-03-20T14:02:33.765Z,15.7
2023-03-20T14:03:42.323Z,15.4
2023-03-20T14:04:50.630Z,15.4
2023-03-20T14:05:58.972Z,15.4
2023-03-20T14:07:07.515Z,14.7
2023-03-20T14:08:15.836Z,14.7
2023-03-20T14:09:24.200Z,14.7
2023-03-20T14:10:32.732Z,15.5
2023-03-20T14:11:41.101Z,15.5
2023-03-20T14:12:49.419Z,15.5
2023-03-20T14:13:57.960Z,14.7
2023-03-20T14:15:06.312Z,14.7
2023-03-20T14:16:14.674Z,14.7
2023-03-20T14:17:23.200Z,16.4
2023-03-20T14:18:31.538Z,16.4
2023-03-20T14:19:39.888Z,16.4
2023-03-20T14:20:48.437Z,16
2023-03-20T14:21:56.800Z,16
2023-03-20T14:23:05.110Z,16
2023-03-20T14:24:13.643Z,16.1
2023-03-20T14:25:21.966Z,16.1
2023-03-20T14:26:30.318Z,16.1
2023-03-20T14:27:44.618Z,15.3
2023-03-20T14:28:47.204Z,15.3
2023-03-20T14:29:55.563Z,15.3
2023-03-20T14:31:04.108Z,14.6
2023-03-20T14:32:12.488Z,14.6
2023-03-20T14:33:23.270Z,14.6
2023-03-20T14:34:29.337Z,15.6
2023-03-20T14:35:37.712Z,15.6
2023-03-20T14:36:46.020Z,15.6
2023-03-20T14:37:54.577Z,14.1
2023-03-20T14:39:02.918Z,14.1
2023-03-20T14:40:11.249Z,14.1
2023-03-20T14:41:19.811Z,14.7
2023-03-20T14:42:28.141Z,14.7
2023-03-20T14:43:36.471Z,14.7
2023-03-20T14:44:45.012Z,15.3
2023-03-20T14:45:53.341Z,15.3
2023-03-20T14:47:01.696Z,15.3
2023-03-20T14:48:10.267Z,14.5
2023-03-20T14:49:18.582Z,14.5
2023-03-20T14:50:26.918Z,14.5
2023-03-20T14:51:35.475Z,12.3
2023-03-20T14:52:43.807Z,12.3
2023-03-20T14:53:52.130Z,12.3
2023-03-20T14:55:00.694Z,10.9
2023-03-20T14:56:09.056Z,10.9
2023-03-20T14:57:17.365Z,10.9
2023-03-20T14:58:25.944Z,10.6
2023-03-20T14:59:34.282Z,10.6
2023-03-20T15:00:42.637Z,10.6
2023-03-20T15:01:51.218Z,10.9